sensor_id;sensor_type;location;lat;lon;timestamp;temperature;humidity
14585;DHT22;7379;51.506;11.876;2022-11-15T00:01:08;7.80;87.60
14585;DHT22;7379;51.506;11.876;2022-11-15T00:03:35;7.80;87.60
14585;DHT22;7379;51.506;11.876;2022-11-15T00:06:02;7.80;87.60
14585;DHT22;7379;51.506;11.876;2022-11-15T00:08:30;7.80;87.60
14585;DHT22;7379;51.506;11.876;2022-11-15T00:10:57;7.80;87.60
14585;DHT22;7379;51.506;11.876;2022-11-15T00:13:26;7.80;87.60
14585;DHT22;7379;51.506;11.876;2022-11-15T00:15:56;7.80;87.60
14585;DHT22;7379;51.506;11.876;2022-11-15T00:18:23;7.80;87.60
14585;DHT22;7379;51.506;11.876;2022-11-15T00:20:50;7.80;87.60
14585;DHT22;7379;51.506;11.876;2022-11-15T00:23:17;7.80;87.60
14585;DHT22;7379;51.506;11.876;2022-11-15T00:25:44;7.80;87.60
14585;DHT22;7379;51.506;11.876;2022-11-15T00:28:11;7.80;87.60
14585;DHT22;7379;51.506;11.876;2022-11-15T00:30:39;7.80;87.60
14585;DHT22;7379;51.506;11.876;2022-11-15T00:33:06;7.80;87.60
14585;DHT22;7379;51.506;11.876;2022-11-15T00:35:34;7.80;87.70
14585;DHT22;7379;51.506;11.876;2022-11-15T00:38:02;7.80;87.70
14585;DHT22;7379;51.506;11.876;2022-11-15T00:40:29;7.80;87.70
14585;DHT22;7379;51.506;11.876;2022-11-15T00:42:56;7.80;87.70
14585;DHT22;7379;51.506;11.876;2022-11-15T00:45:24;7.80;87.70
14585;DHT22;7379;51.506;11.876;2022-11-15T00:47:52;7.80;87.70
14585;DHT22;7379;51.506;11.876;2022-11-15T00:50:19;7.80;87.60
14585;DHT22;7379;51.506;11.876;2022-11-15T00:52:46;7.80;87.60
14585;DHT22;7379;51.506;11.876;2022-11-15T00:55:13;7.80;87.60
14585;DHT22;7379;51.506;11.876;2022-11-15T00:57:41;7.80;87.60
14585;DHT22;7379;51.506;11.876;2022-11-15T01:00:09;7.80;87.60
14585;DHT22;7379;51.506;11.876;2022-11-15T01:02:36;7.80;87.60
14585;DHT22;7379;51.506;11.876;2022-11-15T01:05:05;7.80;87.60
14585;DHT22;7379;51.506;11.876;2022-11-15T01:07:31;7.80;87.60
14585;DHT22;7379;51.506;11.876;2022-11-15T01:09:58;7.80;87.60
14585;DHT22;7379;51.506;11.876;2022-11-15T01:12:25;7.80;87.60
14585;DHT22;7379;51.506;11.876;2022-11-15T01:14:52;7.70;87.50
14585;DHT22;7379;51.506;11.876;2022-11-15T01:17:19;7.70;87.50
14585;DHT22;7379;51.506;11.876;2022-11-15T01:19:46;7.70;87.50
14585;DHT22;7379;51.506;11.876;2022-11-15T01:22:14;7.70;87.50
14585;DHT22;7379;51.506;11.876;2022-11-15T01:24:40;7.70;87.50
14585;DHT22;7379;51.506;11.876;2022-11-15T01:27:07;7.70;87.50
14585;DHT22;7379;51.506;11.876;2022-11-15T01:29:34;7.70;87.50
14585;DHT22;7379;51.506;11.876;2022-11-15T01:32:01;7.70;87.50
14585;DHT22;7379;51.506;11.876;2022-11-15T01:34:28;7.70;87.50
14585;DHT22;7379;51.506;11.876;2022-11-15T01:36:55;7.70;87.50
14585;DHT22;7379;51.506;11.876;2022-11-15T01:39:23;7.70;87.50
14585;DHT22;7379;51.506;11.876;2022-11-15T01:41:50;7.70;87.50
14585;DHT22;7379;51.506;11.876;2022-11-15T01:44:42;7.70;87.50
14585;DHT22;7379;51.506;11.876;2022-11-15T01:47:14;7.70;87.50
14585;DHT22;7379;51.506;11.876;2022-11-15T01:49:48;7.70;87.50
14585;DHT22;7379;51.506;11.876;2022-11-15T01:52:19;7.70;87.50
14585;DHT22;7379;51.506;11.876;2022-11-15T01:54:51;7.70;88.20
14585;DHT22;7379;51.506;11.876;2022-11-15T01:57:19;7.70;87.50
14585;DHT22;7379;51.506;11.876;2022-11-15T01:59:46;7.70;87.50
14585;DHT22;7379;51.506;11.876;2022-11-15T02:02:13;7.70;87.60
14585;DHT22;7379;51.506;11.876;2022-11-15T02:04:42;7.70;87.60
14585;DHT22;7379;51.506;11.876;2022-11-15T02:07:12;7.70;87.60
14585;DHT22;7379;51.506;11.876;2022-11-15T02:09:40;7.70;87.60
14585;DHT22;7379;51.506;11.876;2022-11-15T02:12:09;7.70;87.60
14585;DHT22;7379;51.506;11.876;2022-11-15T02:14:38;7.70;88.30
14585;DHT22;7379;51.506;11.876;2022-11-15T02:17:20;7.70;87.60
14585;DHT22;7379;51.506;11.876;2022-11-15T02:20:14;7.70;87.60
14585;DHT22;7379;51.506;11.876;2022-11-15T02:22:57;7.70;87.60
14585;DHT22;7379;51.506;11.876;2022-11-15T02:25:38;7.70;87.60
14585;DHT22;7379;51.506;11.876;2022-11-15T02:31:09;7.70;87.60
14585;DHT22;7379;51.506;11.876;2022-11-15T02:33:42;7.70;87.60
14585;DHT22;7379;51.506;11.876;2022-11-15T02:36:17;7.70;87.60
14585;DHT22;7379;51.506;11.876;2022-11-15T02:38:50;7.70;87.60
14585;DHT22;7379;51.506;11.876;2022-11-15T02:41:24;7.70;87.60
14585;DHT22;7379;51.506;11.876;2022-11-15T02:43:58;7.70;87.60
14585;DHT22;7379;51.506;11.876;2022-11-15T02:46:33;7.70;87.70
14585;DHT22;7379;51.506;11.876;2022-11-15T02:49:19;7.70;87.70
14585;DHT22;7379;51.506;11.876;2022-11-15T02:51:48;7.60;87.50
14585;DHT22;7379;51.506;11.876;2022-11-15T02:54:20;7.60;87.50
14585;DHT22;7379;51.506;11.876;2022-11-15T02:56:47;7.60;87.50
14585;DHT22;7379;51.506;11.876;2022-11-15T02:59:43;7.60;87.60
14585;DHT22;7379;51.506;11.876;2022-11-15T03:02:24;7.60;87.60
14585;DHT22;7379;51.506;11.876;2022-11-15T03:04:56;7.60;87.60
14585;DHT22;7379;51.506;11.876;2022-11-15T03:07:29;7.60;87.60
14585;DHT22;7379;51.506;11.876;2022-11-15T03:10:02;7.60;87.60
14585;DHT22;7379;51.506;11.876;2022-11-15T03:12:37;7.60;87.60
14585;DHT22;7379;51.506;11.876;2022-11-15T03:15:10;7.60;87.60
14585;DHT22;7379;51.506;11.876;2022-11-15T03:17:43;7.60;87.60
14585;DHT22;7379;51.506;11.876;2022-11-15T03:20:13;7.60;87.60
14585;DHT22;7379;51.506;11.876;2022-11-15T03:22:44;7.60;87.70
14585;DHT22;7379;51.506;11.876;2022-11-15T03:25:18;7.60;87.70
14585;DHT22;7379;51.506;11.876;2022-11-15T03:27:49;7.60;87.70
14585;DHT22;7379;51.506;11.876;2022-11-15T03:30:17;7.60;87.70
14585;DHT22;7379;51.506;11.876;2022-11-15T03:32:49;7.60;87.70
14585;DHT22;7379;51.506;11.876;2022-11-15T03:35:19;7.60;87.80
14585;DHT22;7379;51.506;11.876;2022-11-15T03:37:50;7.60;87.70
14585;DHT22;7379;51.506;11.876;2022-11-15T03:40:23;7.60;87.70
14585;DHT22;7379;51.506;11.876;2022-11-15T03:42:59;7.60;87.70
14585;DHT22;7379;51.506;11.876;2022-11-15T03:45:29;7.60;87.70
14585;DHT22;7379;51.506;11.876;2022-11-15T03:48:02;7.60;87.70
14585;DHT22;7379;51.506;11.876;2022-11-15T03:50:31;7.60;87.80
14585;DHT22;7379;51.506;11.876;2022-11-15T03:52:59;7.60;87.70
14585;DHT22;7379;51.506;11.876;2022-11-15T03:55:26;7.60;87.80
14585;DHT22;7379;51.506;11.876;2022-11-15T03:57:54;7.60;87.70
14585;DHT22;7379;51.506;11.876;2022-11-15T04:00:22;7.60;87.80
14585;DHT22;7379;51.506;11.876;2022-11-15T04:02:49;7.60;87.80
14585;DHT22;7379;51.506;11.876;2022-11-15T04:05:17;7.60;87.80
14585;DHT22;7379;51.506;11.876;2022-11-15T04:07:44;7.60;87.80
14585;DHT22;7379;51.506;11.876;2022-11-15T04:10:11;7.60;87.80
14585;DHT22;7379;51.506;11.876;2022-11-15T04:12:40;7.60;87.80
14585;DHT22;7379;51.506;11.876;2022-11-15T04:15:10;7.60;87.80
14585;DHT22;7379;51.506;11.876;2022-11-15T04:17:41;7.60;87.80
14585;DHT22;7379;51.506;11.876;2022-11-15T04:20:10;7.60;87.90
14585;DHT22;7379;51.506;11.876;2022-11-15T04:22:58;7.60;87.90
14585;DHT22;7379;51.506;11.876;2022-11-15T04:25:43;7.60;87.90
14585;DHT22;7379;51.506;11.876;2022-11-15T04:28:11;7.60;87.90
14585;DHT22;7379;51.506;11.876;2022-11-15T04:30:38;7.60;87.80
14585;DHT22;7379;51.506;11.876;2022-11-15T04:33:05;7.60;87.90
14585;DHT22;7379;51.506;11.876;2022-11-15T04:35:32;7.60;87.80
14585;DHT22;7379;51.506;11.876;2022-11-15T04:38:01;7.60;87.90
14585;DHT22;7379;51.506;11.876;2022-11-15T04:40:28;7.50;87.80
14585;DHT22;7379;51.506;11.876;2022-11-15T04:42:55;7.50;87.80
14585;DHT22;7379;51.506;11.876;2022-11-15T04:45:22;7.50;87.80
14585;DHT22;7379;51.506;11.876;2022-11-15T04:47:49;7.50;87.80
14585;DHT22;7379;51.506;11.876;2022-11-15T04:50:16;7.50;87.80
14585;DHT22;7379;51.506;11.876;2022-11-15T04:52:49;7.50;87.80
14585;DHT22;7379;51.506;11.876;2022-11-15T04:55:18;7.50;87.80
14585;DHT22;7379;51.506;11.876;2022-11-15T04:57:45;7.50;87.80
14585;DHT22;7379;51.506;11.876;2022-11-15T05:00:15;7.50;87.80
14585;DHT22;7379;51.506;11.876;2022-11-15T05:02:42;7.50;87.80
14585;DHT22;7379;51.506;11.876;2022-11-15T05:05:26;7.50;87.80
14585;DHT22;7379;51.506;11.876;2022-11-15T05:07:53;7.50;87.80
14585;DHT22;7379;51.506;11.876;2022-11-15T05:10:21;7.60;87.90
14585;DHT22;7379;51.506;11.876;2022-11-15T05:12:48;7.50;87.80
14585;DHT22;7379;51.506;11.876;2022-11-15T05:15:15;7.50;87.80
14585;DHT22;7379;51.506;11.876;2022-11-15T05:17:41;7.50;87.90
14585;DHT22;7379;51.506;11.876;2022-11-15T05:20:09;7.50;87.90
14585;DHT22;7379;51.506;11.876;2022-11-15T05:22:36;7.50;87.80
14585;DHT22;7379;51.506;11.876;2022-11-15T05:25:04;7.50;87.80
14585;DHT22;7379;51.506;11.876;2022-11-15T05:27:32;7.50;87.90
14585;DHT22;7379;51.506;11.876;2022-11-15T05:29:59;7.50;87.90
14585;DHT22;7379;51.506;11.876;2022-11-15T05:32:26;7.50;87.90
14585;DHT22;7379;51.506;11.876;2022-11-15T05:34:54;7.50;87.90
14585;DHT22;7379;51.506;11.876;2022-11-15T05:37:21;7.50;87.90
14585;DHT22;7379;51.506;11.876;2022-11-15T05:39:48;7.50;87.90
14585;DHT22;7379;51.506;11.876;2022-11-15T05:42:15;7.50;87.90
14585;DHT22;7379;51.506;11.876;2022-11-15T05:44:47;7.50;87.90
14585;DHT22;7379;51.506;11.876;2022-11-15T05:47:17;7.50;87.90
14585;DHT22;7379;51.506;11.876;2022-11-15T05:49:45;7.50;87.90
14585;DHT22;7379;51.506;11.876;2022-11-15T05:52:16;7.50;87.90
14585;DHT22;7379;51.506;11.876;2022-11-15T05:54:43;7.50;87.90
14585;DHT22;7379;51.506;11.876;2022-11-15T05:57:10;7.50;87.90
14585;DHT22;7379;51.506;11.876;2022-11-15T05:59:37;7.50;87.90
14585;DHT22;7379;51.506;11.876;2022-11-15T06:02:07;7.50;87.90
14585;DHT22;7379;51.506;11.876;2022-11-15T06:04:34;7.50;87.90
14585;DHT22;7379;51.506;11.876;2022-11-15T06:07:01;7.50;87.90
14585;DHT22;7379;51.506;11.876;2022-11-15T06:09:28;7.50;87.90
14585;DHT22;7379;51.506;11.876;2022-11-15T06:11:54;7.50;87.90
14585;DHT22;7379;51.506;11.876;2022-11-15T06:14:21;7.50;87.90
14585;DHT22;7379;51.506;11.876;2022-11-15T06:16:48;7.50;87.90
14585;DHT22;7379;51.506;11.876;2022-11-15T06:19:16;7.50;87.90
14585;DHT22;7379;51.506;11.876;2022-11-15T06:21:43;7.50;87.90
14585;DHT22;7379;51.506;11.876;2022-11-15T06:24:09;7.50;87.90
14585;DHT22;7379;51.506;11.876;2022-11-15T06:26:36;7.50;87.90
14585;DHT22;7379;51.506;11.876;2022-11-15T06:29:03;7.50;87.90
14585;DHT22;7379;51.506;11.876;2022-11-15T06:31:30;7.50;88.00
14585;DHT22;7379;51.506;11.876;2022-11-15T06:33:57;7.50;88.00
14585;DHT22;7379;51.506;11.876;2022-11-15T06:36:25;7.50;87.90
14585;DHT22;7379;51.506;11.876;2022-11-15T06:38:52;7.50;88.00
14585;DHT22;7379;51.506;11.876;2022-11-15T06:41:19;7.50;87.90
14585;DHT22;7379;51.506;11.876;2022-11-15T06:43:46;7.50;87.90
14585;DHT22;7379;51.506;11.876;2022-11-15T06:46:13;7.50;87.90
14585;DHT22;7379;51.506;11.876;2022-11-15T06:48:40;7.50;87.90
14585;DHT22;7379;51.506;11.876;2022-11-15T06:51:06;7.50;87.90
14585;DHT22;7379;51.506;11.876;2022-11-15T06:53:35;7.50;87.90
14585;DHT22;7379;51.506;11.876;2022-11-15T06:56:04;7.50;87.90
14585;DHT22;7379;51.506;11.876;2022-11-15T06:58:31;7.50;87.90
14585;DHT22;7379;51.506;11.876;2022-11-15T07:00:59;7.50;87.90
14585;DHT22;7379;51.506;11.876;2022-11-15T07:03:26;7.50;87.90
14585;DHT22;7379;51.506;11.876;2022-11-15T07:05:54;7.50;87.90
14585;DHT22;7379;51.506;11.876;2022-11-15T07:08:21;7.50;88.00
14585;DHT22;7379;51.506;11.876;2022-11-15T07:10:49;7.50;87.90
14585;DHT22;7379;51.506;11.876;2022-11-15T07:13:16;7.50;87.90
14585;DHT22;7379;51.506;11.876;2022-11-15T07:15:43;7.50;87.90
14585;DHT22;7379;51.506;11.876;2022-11-15T07:18:10;7.50;87.90
14585;DHT22;7379;51.506;11.876;2022-11-15T07:20:37;7.50;87.90
14585;DHT22;7379;51.506;11.876;2022-11-15T07:23:05;7.50;87.90
14585;DHT22;7379;51.506;11.876;2022-11-15T07:25:32;7.50;88.00
14585;DHT22;7379;51.506;11.876;2022-11-15T07:28:01;7.50;87.90
14585;DHT22;7379;51.506;11.876;2022-11-15T07:30:28;7.50;87.90
14585;DHT22;7379;51.506;11.876;2022-11-15T07:32:56;7.50;87.90
14585;DHT22;7379;51.506;11.876;2022-11-15T07:35:52;7.50;88.00
14585;DHT22;7379;51.506;11.876;2022-11-15T07:38:18;7.50;88.00
14585;DHT22;7379;51.506;11.876;2022-11-15T07:40:46;7.50;88.00
14585;DHT22;7379;51.506;11.876;2022-11-15T07:43:15;7.50;88.00
14585;DHT22;7379;51.506;11.876;2022-11-15T07:45:42;7.50;88.00
14585;DHT22;7379;51.506;11.876;2022-11-15T07:48:09;7.50;88.00
14585;DHT22;7379;51.506;11.876;2022-11-15T07:50:37;7.50;88.00
14585;DHT22;7379;51.506;11.876;2022-11-15T07:53:08;7.50;88.00
14585;DHT22;7379;51.506;11.876;2022-11-15T07:55:35;7.50;88.00
14585;DHT22;7379;51.506;11.876;2022-11-15T07:58:03;7.50;88.00
14585;DHT22;7379;51.506;11.876;2022-11-15T08:00:31;7.50;88.70
14585;DHT22;7379;51.506;11.876;2022-11-15T08:03:03;7.50;88.00
14585;DHT22;7379;51.506;11.876;2022-11-15T08:05:30;7.50;88.00
14585;DHT22;7379;51.506;11.876;2022-11-15T08:07:57;7.50;88.00
14585;DHT22;7379;51.506;11.876;2022-11-15T08:10:25;7.50;88.00
14585;DHT22;7379;51.506;11.876;2022-11-15T08:13:03;7.60;88.00
14585;DHT22;7379;51.506;11.876;2022-11-15T08:15:31;7.60;88.00
14585;DHT22;7379;51.506;11.876;2022-11-15T08:17:59;7.50;87.90
14585;DHT22;7379;51.506;11.876;2022-11-15T08:20:28;7.50;88.00
14585;DHT22;7379;51.506;11.876;2022-11-15T08:22:56;7.60;88.00
14585;DHT22;7379;51.506;11.876;2022-11-15T08:25:23;7.60;88.00
14585;DHT22;7379;51.506;11.876;2022-11-15T08:27:52;7.60;88.10
14585;DHT22;7379;51.506;11.876;2022-11-15T08:30:19;7.60;88.10
14585;DHT22;7379;51.506;11.876;2022-11-15T08:32:47;7.60;88.20
14585;DHT22;7379;51.506;11.876;2022-11-15T08:35:14;7.60;88.20
14585;DHT22;7379;51.506;11.876;2022-11-15T08:37:41;7.60;88.20
14585;DHT22;7379;51.506;11.876;2022-11-15T08:40:09;7.60;88.20
14585;DHT22;7379;51.506;11.876;2022-11-15T08:42:36;7.60;88.30
14585;DHT22;7379;51.506;11.876;2022-11-15T08:45:03;7.60;88.30
14585;DHT22;7379;51.506;11.876;2022-11-15T08:47:30;7.60;88.30
14585;DHT22;7379;51.506;11.876;2022-11-15T08:49:58;7.60;88.30
14585;DHT22;7379;51.506;11.876;2022-11-15T08:52:25;7.70;88.50
14585;DHT22;7379;51.506;11.876;2022-11-15T08:54:52;7.70;88.50
14585;DHT22;7379;51.506;11.876;2022-11-15T08:57:18;7.70;88.40
14585;DHT22;7379;51.506;11.876;2022-11-15T08:59:45;7.70;88.40
14585;DHT22;7379;51.506;11.876;2022-11-15T09:02:13;7.70;88.40
14585;DHT22;7379;51.506;11.876;2022-11-15T09:04:40;7.70;88.50
14585;DHT22;7379;51.506;11.876;2022-11-15T09:07:09;7.70;88.40
14585;DHT22;7379;51.506;11.876;2022-11-15T09:09:37;7.70;88.40
14585;DHT22;7379;51.506;11.876;2022-11-15T09:12:05;7.70;88.40
14585;DHT22;7379;51.506;11.876;2022-11-15T09:14:32;7.70;88.40
14585;DHT22;7379;51.506;11.876;2022-11-15T09:17:00;7.70;88.40
14585;DHT22;7379;51.506;11.876;2022-11-15T09:19:27;7.70;88.40
14585;DHT22;7379;51.506;11.876;2022-11-15T09:21:53;7.70;88.40
14585;DHT22;7379;51.506;11.876;2022-11-15T09:24:21;7.80;88.50
14585;DHT22;7379;51.506;11.876;2022-11-15T09:26:49;7.80;88.50
14585;DHT22;7379;51.506;11.876;2022-11-15T09:29:16;7.80;88.60
14585;DHT22;7379;51.506;11.876;2022-11-15T09:31:43;7.80;88.70
14585;DHT22;7379;51.506;11.876;2022-11-15T09:34:10;7.80;88.60
14585;DHT22;7379;51.506;11.876;2022-11-15T09:36:37;7.80;88.70
14585;DHT22;7379;51.506;11.876;2022-11-15T09:39:04;7.90;88.80
14585;DHT22;7379;51.506;11.876;2022-11-15T09:44:56;7.90;89.10
14585;DHT22;7379;51.506;11.876;2022-11-15T09:47:42;7.90;89.20
14585;DHT22;7379;51.506;11.876;2022-11-15T09:50:17;7.90;89.20
14585;DHT22;7379;51.506;11.876;2022-11-15T09:52:46;7.90;89.30
14585;DHT22;7379;51.506;11.876;2022-11-15T09:55:14;8.00;89.40
14585;DHT22;7379;51.506;11.876;2022-11-15T09:57:54;8.00;89.20
14585;DHT22;7379;51.506;11.876;2022-11-15T10:00:25;8.00;89.40
14585;DHT22;7379;51.506;11.876;2022-11-15T10:03:06;8.00;89.20
14585;DHT22;7379;51.506;11.876;2022-11-15T10:05:38;8.00;89.50
14585;DHT22;7379;51.506;11.876;2022-11-15T10:08:24;8.10;89.40
14585;DHT22;7379;51.506;11.876;2022-11-15T10:11:01;8.10;89.40
14585;DHT22;7379;51.506;11.876;2022-11-15T10:13:31;8.10;89.80
14585;DHT22;7379;51.506;11.876;2022-11-15T10:16:07;8.10;89.30
14585;DHT22;7379;51.506;11.876;2022-11-15T10:18:46;8.20;89.50
14585;DHT22;7379;51.506;11.876;2022-11-15T10:21:20;8.20;89.60
14585;DHT22;7379;51.506;11.876;2022-11-15T10:23:48;8.20;89.20
14585;DHT22;7379;51.506;11.876;2022-11-15T10:26:17;8.20;89.50
14585;DHT22;7379;51.506;11.876;2022-11-15T10:28:45;8.20;89.90
14585;DHT22;7379;51.506;11.876;2022-11-15T10:31:23;8.30;89.40
14585;DHT22;7379;51.506;11.876;2022-11-15T10:33:51;8.30;89.60
14585;DHT22;7379;51.506;11.876;2022-11-15T10:36:23;8.30;90.00
14585;DHT22;7379;51.506;11.876;2022-11-15T10:38:57;8.40;89.50
14585;DHT22;7379;51.506;11.876;2022-11-15T10:41:35;8.40;89.30
14585;DHT22;7379;51.506;11.876;2022-11-15T10:44:21;8.30;89.10
14585;DHT22;7379;51.506;11.876;2022-11-15T10:47:03;8.40;89.60
14585;DHT22;7379;51.506;11.876;2022-11-15T10:49:31;8.50;90.00
14585;DHT22;7379;51.506;11.876;2022-11-15T10:52:00;8.50;89.40
14585;DHT22;7379;51.506;11.876;2022-11-15T10:54:29;8.50;89.10
14585;DHT22;7379;51.506;11.876;2022-11-15T10:56:59;8.50;89.10
14585;DHT22;7379;51.506;11.876;2022-11-15T10:59:29;8.50;89.10
14585;DHT22;7379;51.506;11.876;2022-11-15T11:01:57;8.50;89.40
14585;DHT22;7379;51.506;11.876;2022-11-15T11:04:24;8.50;89.30
14585;DHT22;7379;51.506;11.876;2022-11-15T11:06:52;8.60;89.20
14585;DHT22;7379;51.506;11.876;2022-11-15T11:09:31;8.60;89.00
14585;DHT22;7379;51.506;11.876;2022-11-15T11:11:59;8.60;89.10
14585;DHT22;7379;51.506;11.876;2022-11-15T11:14:29;8.60;89.30
14585;DHT22;7379;51.506;11.876;2022-11-15T11:17:04;8.60;89.30
14585;DHT22;7379;51.506;11.876;2022-11-15T11:19:48;8.60;89.60
14585;DHT22;7379;51.506;11.876;2022-11-15T11:22:21;8.70;89.70
14585;DHT22;7379;51.506;11.876;2022-11-15T11:24:58;8.70;89.30
14585;DHT22;7379;51.506;11.876;2022-11-15T11:27:36;8.70;89.00
14585;DHT22;7379;51.506;11.876;2022-11-15T11:30:14;8.70;89.20
14585;DHT22;7379;51.506;11.876;2022-11-15T11:33:05;8.70;89.30
14585;DHT22;7379;51.506;11.876;2022-11-15T11:35:45;8.70;89.40
14585;DHT22;7379;51.506;11.876;2022-11-15T11:38:31;8.80;89.30
14585;DHT22;7379;51.506;11.876;2022-11-15T11:41:06;8.80;89.20
14585;DHT22;7379;51.506;11.876;2022-11-15T11:43:45;8.80;89.30
14585;DHT22;7379;51.506;11.876;2022-11-15T11:46:26;8.80;89.30
14585;DHT22;7379;51.506;11.876;2022-11-15T11:48:58;8.90;89.30
14585;DHT22;7379;51.506;11.876;2022-11-15T11:51:32;8.90;89.20
14585;DHT22;7379;51.506;11.876;2022-11-15T11:54:05;8.90;89.20
14585;DHT22;7379;51.506;11.876;2022-11-15T11:56:34;8.90;89.10
14585;DHT22;7379;51.506;11.876;2022-11-15T11:59:07;8.90;89.50
14585;DHT22;7379;51.506;11.876;2022-11-15T12:01:42;8.90;89.30
14585;DHT22;7379;51.506;11.876;2022-11-15T12:04:13;9.00;89.50
14585;DHT22;7379;51.506;11.876;2022-11-15T12:06:45;9.00;89.10
14585;DHT22;7379;51.506;11.876;2022-11-15T12:09:17;9.00;89.20
14585;DHT22;7379;51.506;11.876;2022-11-15T12:11:52;9.00;89.00
14585;DHT22;7379;51.506;11.876;2022-11-15T12:14:27;9.00;89.10
14585;DHT22;7379;51.506;11.876;2022-11-15T12:16:58;9.10;89.60
14585;DHT22;7379;51.506;11.876;2022-11-15T12:19:25;9.10;89.20
14585;DHT22;7379;51.506;11.876;2022-11-15T12:21:56;9.10;89.10
14585;DHT22;7379;51.506;11.876;2022-11-15T12:24:28;9.20;89.40
14585;DHT22;7379;51.506;11.876;2022-11-15T12:26:59;9.20;89.10
14585;DHT22;7379;51.506;11.876;2022-11-15T12:29:32;9.20;89.30
14585;DHT22;7379;51.506;11.876;2022-11-15T12:32:02;9.30;89.90
14585;DHT22;7379;51.506;11.876;2022-11-15T12:34:43;9.30;89.30
14585;DHT22;7379;51.506;11.876;2022-11-15T12:40:24;9.30;89.20
14585;DHT22;7379;51.506;11.876;2022-11-15T12:46:20;9.30;88.70
14585;DHT22;7379;51.506;11.876;2022-11-15T12:48:55;9.40;88.90
14585;DHT22;7379;51.506;11.876;2022-11-15T12:54:52;9.40;89.30
14585;DHT22;7379;51.506;11.876;2022-11-15T12:57:32;9.40;88.80
14585;DHT22;7379;51.506;11.876;2022-11-15T13:00:00;9.50;88.60
14585;DHT22;7379;51.506;11.876;2022-11-15T13:02:31;9.50;88.60
14585;DHT22;7379;51.506;11.876;2022-11-15T13:05:45;9.50;88.70
14585;DHT22;7379;51.506;11.876;2022-11-15T13:08:07;9.50;88.50
14585;DHT22;7379;51.506;11.876;2022-11-15T13:10:34;9.60;88.80
14585;DHT22;7379;51.506;11.876;2022-11-15T13:13:03;9.60;88.50
14585;DHT22;7379;51.506;11.876;2022-11-15T13:15:33;9.60;88.10
14585;DHT22;7379;51.506;11.876;2022-11-15T13:18:27;9.70;87.80
14585;DHT22;7379;51.506;11.876;2022-11-15T13:20:54;9.70;87.70
14585;DHT22;7379;51.506;11.876;2022-11-15T13:23:22;9.70;87.60
14585;DHT22;7379;51.506;11.876;2022-11-15T13:26:05;9.70;87.30
14585;DHT22;7379;51.506;11.876;2022-11-15T13:28:36;9.70;87.30
14585;DHT22;7379;51.506;11.876;2022-11-15T13:31:18;9.70;87.20
14585;DHT22;7379;51.506;11.876;2022-11-15T13:33:46;9.70;87.30
14585;DHT22;7379;51.506;11.876;2022-11-15T13:36:14;9.70;87.70
14585;DHT22;7379;51.506;11.876;2022-11-15T13:38:43;9.60;87.80
14585;DHT22;7379;51.506;11.876;2022-11-15T13:41:17;9.60;87.70
14585;DHT22;7379;51.506;11.876;2022-11-15T13:43:44;9.60;87.60
14585;DHT22;7379;51.506;11.876;2022-11-15T13:46:13;9.60;87.60
14585;DHT22;7379;51.506;11.876;2022-11-15T13:48:43;9.60;87.80
14585;DHT22;7379;51.506;11.876;2022-11-15T13:51:15;9.70;87.80
14585;DHT22;7379;51.506;11.876;2022-11-15T13:53:47;9.70;87.70
14585;DHT22;7379;51.506;11.876;2022-11-15T13:56:16;9.70;87.80
14585;DHT22;7379;51.506;11.876;2022-11-15T13:58:44;9.70;87.90
14585;DHT22;7379;51.506;11.876;2022-11-15T14:01:15;9.70;88.00
14585;DHT22;7379;51.506;11.876;2022-11-15T14:03:52;9.60;87.90
14585;DHT22;7379;51.506;11.876;2022-11-15T14:06:21;9.60;87.80
14585;DHT22;7379;51.506;11.876;2022-11-15T14:09:03;9.60;87.80
14585;DHT22;7379;51.506;11.876;2022-11-15T14:11:30;9.60;88.00
14585;DHT22;7379;51.506;11.876;2022-11-15T14:14:12;9.60;88.20
14585;DHT22;7379;51.506;11.876;2022-11-15T14:16:42;9.70;88.90
14585;DHT22;7379;51.506;11.876;2022-11-15T14:19:11;9.60;88.30
14585;DHT22;7379;51.506;11.876;2022-11-15T14:22:08;9.60;88.10
14585;DHT22;7379;51.506;11.876;2022-11-15T14:24:37;9.70;88.00
14585;DHT22;7379;51.506;11.876;2022-11-15T14:27:22;9.70;88.00
14585;DHT22;7379;51.506;11.876;2022-11-15T14:29:49;9.70;88.00
14585;DHT22;7379;51.506;11.876;2022-11-15T14:32:18;9.70;87.80
14585;DHT22;7379;51.506;11.876;2022-11-15T14:34:46;9.70;87.80
14585;DHT22;7379;51.506;11.876;2022-11-15T14:44:17;9.60;87.90
14585;DHT22;7379;51.506;11.876;2022-11-15T14:46:46;9.60;87.80
14585;DHT22;7379;51.506;11.876;2022-11-15T14:49:13;9.60;87.80
14585;DHT22;7379;51.506;11.876;2022-11-15T14:51:40;9.60;87.80
14585;DHT22;7379;51.506;11.876;2022-11-15T14:54:09;9.60;88.00
14585;DHT22;7379;51.506;11.876;2022-11-15T14:56:35;9.60;88.10
14585;DHT22;7379;51.506;11.876;2022-11-15T14:59:02;9.60;88.40
14585;DHT22;7379;51.506;11.876;2022-11-15T15:01:30;9.60;88.20
14585;DHT22;7379;51.506;11.876;2022-11-15T15:03:57;9.60;88.20
14585;DHT22;7379;51.506;11.876;2022-11-15T15:06:25;9.60;88.30
14585;DHT22;7379;51.506;11.876;2022-11-15T15:08:51;9.60;88.20
14585;DHT22;7379;51.506;11.876;2022-11-15T15:11:21;9.60;88.20
14585;DHT22;7379;51.506;11.876;2022-11-15T15:13:49;9.60;88.10
14585;DHT22;7379;51.506;11.876;2022-11-15T15:16:16;9.60;88.00
14585;DHT22;7379;51.506;11.876;2022-11-15T15:18:44;9.60;88.10
14585;DHT22;7379;51.506;11.876;2022-11-15T15:21:19;9.60;88.10
14585;DHT22;7379;51.506;11.876;2022-11-15T15:23:46;9.50;88.00
14585;DHT22;7379;51.506;11.876;2022-11-15T15:26:13;9.50;88.00
14585;DHT22;7379;51.506;11.876;2022-11-15T15:28:40;9.50;88.00
14585;DHT22;7379;51.506;11.876;2022-11-15T15:31:08;9.50;88.20
14585;DHT22;7379;51.506;11.876;2022-11-15T15:33:35;9.50;88.40
14585;DHT22;7379;51.506;11.876;2022-11-15T15:36:04;9.50;88.60
14585;DHT22;7379;51.506;11.876;2022-11-15T15:38:31;9.50;88.60
14585;DHT22;7379;51.506;11.876;2022-11-15T15:40:58;9.50;88.60
14585;DHT22;7379;51.506;11.876;2022-11-15T15:43:28;9.50;88.60
14585;DHT22;7379;51.506;11.876;2022-11-15T15:45:55;9.50;88.50
14585;DHT22;7379;51.506;11.876;2022-11-15T15:48:21;9.50;88.50
14585;DHT22;7379;51.506;11.876;2022-11-15T15:50:48;9.40;88.40
14585;DHT22;7379;51.506;11.876;2022-11-15T15:53:16;9.40;88.40
14585;DHT22;7379;51.506;11.876;2022-11-15T15:55:43;9.40;88.50
14585;DHT22;7379;51.506;11.876;2022-11-15T15:58:10;9.40;88.50
14585;DHT22;7379;51.506;11.876;2022-11-15T16:00:37;9.40;88.50
14585;DHT22;7379;51.506;11.876;2022-11-15T16:03:04;9.40;88.50
14585;DHT22;7379;51.506;11.876;2022-11-15T16:05:31;9.40;88.50
14585;DHT22;7379;51.506;11.876;2022-11-15T16:07:58;9.40;88.50
14585;DHT22;7379;51.506;11.876;2022-11-15T16:10:27;9.40;88.50
14585;DHT22;7379;51.506;11.876;2022-11-15T16:12:55;9.40;88.50
14585;DHT22;7379;51.506;11.876;2022-11-15T16:15:24;9.40;88.60
14585;DHT22;7379;51.506;11.876;2022-11-15T16:17:52;9.40;88.60
14585;DHT22;7379;51.506;11.876;2022-11-15T16:20:30;9.40;88.60
14585;DHT22;7379;51.506;11.876;2022-11-15T16:22:57;9.40;88.60
14585;DHT22;7379;51.506;11.876;2022-11-15T16:25:25;9.40;88.50
14585;DHT22;7379;51.506;11.876;2022-11-15T16:27:52;9.40;88.70